sensor_id;sensor_type;location;lat;lon;timestamp;P1;durP1;ratioP1;P2;durP2;ratioP2
4652;SDS011;9900;48.738;9.306;2022-11-15T00:01:27;14.33;;;9.17;;
4652;SDS011;9900;48.738;9.306;2022-11-15T00:03:55;13.00;;;8.33;;
4652;SDS011;9900;48.738;9.306;2022-11-15T00:06:24;19.53;;;9.00;;
4652;SDS011;9900;48.738;9.306;2022-11-15T00:08:52;13.07;;;9.00;;
4652;SDS011;9900;48.738;9.306;2022-11-15T00:11:21;14.37;;;7.87;;
4652;SDS011;9900;48.738;9.306;2022-11-15T00:13:50;12.57;;;8.43;;
4652;SDS011;9900;48.738;9.306;2022-11-15T00:16:18;11.90;;;8.17;;
4652;SDS011;9900;48.738;9.306;2022-11-15T00:18:48;9.57;;;6.67;;
4652;SDS011;9900;48.738;9.306;2022-11-15T00:21:17;11.93;;;7.70;;
4652;SDS011;9900;48.738;9.306;2022-11-15T00:23:46;13.03;;;7.30;;
4652;SDS011;9900;48.738;9.306;2022-11-15T00:26:15;12.63;;;8.00;;
4652;SDS011;9900;48.738;9.306;2022-11-15T00:28:43;14.50;;;8.17;;
4652;SDS011;9900;48.738;9.306;2022-11-15T00:31:13;13.47;;;7.93;;
4652;SDS011;9900;48.738;9.306;2022-11-15T00:33:43;11.90;;;8.47;;
4652;SDS011;9900;48.738;9.306;2022-11-15T00:36:13;18.90;;;8.23;;
4652;SDS011;9900;48.738;9.306;2022-11-15T00:38:42;17.23;;;7.27;;
4652;SDS011;9900;48.738;9.306;2022-11-15T00:41:10;12.77;;;6.97;;
4652;SDS011;9900;48.738;9.306;2022-11-15T00:43:39;12.30;;;7.23;;
4652;SDS011;9900;48.738;9.306;2022-11-15T00:46:10;11.73;;;7.73;;
4652;SDS011;9900;48.738;9.306;2022-11-15T00:48:39;18.63;;;8.60;;
4652;SDS011;9900;48.738;9.306;2022-11-15T00:51:07;10.50;;;7.10;;
4652;SDS011;9900;48.738;9.306;2022-11-15T00:53:37;20.77;;;7.30;;
4652;SDS011;9900;48.738;9.306;2022-11-15T00:56:06;12.17;;;7.10;;
4652;SDS011;9900;48.738;9.306;2022-11-15T00:58:35;16.33;;;7.77;;
4652;SDS011;9900;48.738;9.306;2022-11-15T01:01:08;15.93;;;8.00;;
4652;SDS011;9900;48.738;9.306;2022-11-15T01:03:37;11.07;;;7.33;;
4652;SDS011;9900;48.738;9.306;2022-11-15T01:06:06;15.33;;;7.50;;
4652;SDS011;9900;48.738;9.306;2022-11-15T01:08:40;15.63;;;7.23;;
4652;SDS011;9900;48.738;9.306;2022-11-15T01:11:09;9.70;;;6.70;;
4652;SDS011;9900;48.738;9.306;2022-11-15T01:13:39;11.20;;;7.60;;
4652;SDS011;9900;48.738;9.306;2022-11-15T01:16:09;12.83;;;8.13;;
4652;SDS011;9900;48.738;9.306;2022-11-15T01:18:38;11.30;;;7.80;;
4652;SDS011;9900;48.738;9.306;2022-11-15T01:21:07;14.23;;;7.50;;
4652;SDS011;9900;48.738;9.306;2022-11-15T01:23:36;11.40;;;7.97;;
4652;SDS011;9900;48.738;9.306;2022-11-15T01:26:07;11.70;;;7.40;;
4652;SDS011;9900;48.738;9.306;2022-11-15T01:28:38;11.30;;;7.57;;
4652;SDS011;9900;48.738;9.306;2022-11-15T01:31:09;12.83;;;8.43;;
4652;SDS011;9900;48.738;9.306;2022-11-15T01:33:40;13.60;;;7.83;;
4652;SDS011;9900;48.738;9.306;2022-11-15T01:36:10;13.20;;;7.50;;
4652;SDS011;9900;48.738;9.306;2022-11-15T01:38:40;13.33;;;7.87;;
4652;SDS011;9900;48.738;9.306;2022-11-15T01:41:14;15.30;;;8.30;;
4652;SDS011;9900;48.738;9.306;2022-11-15T01:43:46;14.40;;;7.53;;
4652;SDS011;9900;48.738;9.306;2022-11-15T01:46:27;12.30;;;7.20;;
4652;SDS011;9900;48.738;9.306;2022-11-15T01:48:58;10.23;;;7.20;;
4652;SDS011;9900;48.738;9.306;2022-11-15T01:51:29;17.67;;;9.30;;
4652;SDS011;9900;48.738;9.306;2022-11-15T01:54:00;12.90;;;8.17;;
4652;SDS011;9900;48.738;9.306;2022-11-15T01:56:33;9.57;;;7.77;;
4652;SDS011;9900;48.738;9.306;2022-11-15T01:59:06;14.60;;;8.20;;
4652;SDS011;9900;48.738;9.306;2022-11-15T02:01:36;15.50;;;8.07;;
4652;SDS011;9900;48.738;9.306;2022-11-15T02:04:06;11.80;;;7.67;;
4652;SDS011;9900;48.738;9.306;2022-11-15T02:06:38;10.30;;;7.13;;
4652;SDS011;9900;48.738;9.306;2022-11-15T02:09:07;11.10;;;7.10;;
4652;SDS011;9900;48.738;9.306;2022-11-15T02:11:37;19.70;;;8.10;;
4652;SDS011;9900;48.738;9.306;2022-11-15T02:14:06;11.40;;;7.43;;
4652;SDS011;9900;48.738;9.306;2022-11-15T02:16:35;10.10;;;6.93;;
4652;SDS011;9900;48.738;9.306;2022-11-15T02:19:15;14.97;;;7.10;;
4652;SDS011;9900;48.738;9.306;2022-11-15T02:21:59;11.97;;;6.87;;
4652;SDS011;9900;48.738;9.306;2022-11-15T02:30:40;9.30;;;6.00;;
4652;SDS011;9900;48.738;9.306;2022-11-15T02:33:12;12.30;;;7.60;;
4652;SDS011;9900;48.738;9.306;2022-11-15T02:35:48;14.60;;;7.27;;
4652;SDS011;9900;48.738;9.306;2022-11-15T02:38:22;10.40;;;7.43;;
4652;SDS011;9900;48.738;9.306;2022-11-15T02:40:58;11.97;;;7.03;;
4652;SDS011;9900;48.738;9.306;2022-11-15T02:43:31;12.60;;;7.50;;
4652;SDS011;9900;48.738;9.306;2022-11-15T02:46:21;11.33;;;7.67;;
4652;SDS011;9900;48.738;9.306;2022-11-15T02:49:11;8.37;;;6.13;;
4652;SDS011;9900;48.738;9.306;2022-11-15T02:51:40;11.40;;;7.07;;
4652;SDS011;9900;48.738;9.306;2022-11-15T02:54:12;15.67;;;7.47;;
4652;SDS011;9900;48.738;9.306;2022-11-15T02:56:42;15.43;;;7.50;;
4652;SDS011;9900;48.738;9.306;2022-11-15T02:59:13;10.43;;;6.73;;
4652;SDS011;9900;48.738;9.306;2022-11-15T03:01:58;12.30;;;7.17;;
4652;SDS011;9900;48.738;9.306;2022-11-15T03:04:36;14.70;;;7.20;;
4652;SDS011;9900;48.738;9.306;2022-11-15T03:07:10;16.17;;;7.57;;
4652;SDS011;9900;48.738;9.306;2022-11-15T03:09:42;11.60;;;7.73;;
4652;SDS011;9900;48.738;9.306;2022-11-15T03:12:14;13.80;;;6.80;;
4652;SDS011;9900;48.738;9.306;2022-11-15T03:14:47;12.80;;;7.83;;
4652;SDS011;9900;48.738;9.306;2022-11-15T03:17:23;13.40;;;7.23;;
4652;SDS011;9900;48.738;9.306;2022-11-15T03:19:53;10.93;;;7.47;;
4652;SDS011;9900;48.738;9.306;2022-11-15T03:22:23;11.30;;;7.03;;
4652;SDS011;9900;48.738;9.306;2022-11-15T03:24:53;12.43;;;8.30;;
4652;SDS011;9900;48.738;9.306;2022-11-15T03:27:24;12.23;;;7.53;;
4652;SDS011;9900;48.738;9.306;2022-11-15T03:29:55;11.90;;;7.33;;
4652;SDS011;9900;48.738;9.306;2022-11-15T03:32:28;12.30;;;6.97;;
4652;SDS011;9900;48.738;9.306;2022-11-15T03:34:58;11.90;;;7.53;;
4652;SDS011;9900;48.738;9.306;2022-11-15T03:37:30;10.43;;;7.40;;
4652;SDS011;9900;48.738;9.306;2022-11-15T03:40:01;14.53;;;7.13;;
4652;SDS011;9900;48.738;9.306;2022-11-15T03:42:32;15.53;;;7.83;;
4652;SDS011;9900;48.738;9.306;2022-11-15T03:45:05;11.37;;;7.57;;
4652;SDS011;9900;48.738;9.306;2022-11-15T03:47:41;12.50;;;7.27;;
4652;SDS011;9900;48.738;9.306;2022-11-15T03:50:13;10.70;;;7.50;;
4652;SDS011;9900;48.738;9.306;2022-11-15T03:52:44;13.43;;;7.40;;
4652;SDS011;9900;48.738;9.306;2022-11-15T03:55:14;10.00;;;7.20;;
4652;SDS011;9900;48.738;9.306;2022-11-15T03:57:44;13.73;;;6.90;;
4652;SDS011;9900;48.738;9.306;2022-11-15T04:00:13;9.67;;;6.90;;
4652;SDS011;9900;48.738;9.306;2022-11-15T04:02:44;10.97;;;7.33;;
4652;SDS011;9900;48.738;9.306;2022-11-15T04:05:12;14.10;;;7.63;;
4652;SDS011;9900;48.738;9.306;2022-11-15T04:07:41;16.33;;;8.17;;
4652;SDS011;9900;48.738;9.306;2022-11-15T04:10:10;12.70;;;7.70;;
4652;SDS011;9900;48.738;9.306;2022-11-15T04:12:40;15.20;;;7.53;;
4652;SDS011;9900;48.738;9.306;2022-11-15T04:15:11;12.77;;;7.57;;
4652;SDS011;9900;48.738;9.306;2022-11-15T04:17:42;11.37;;;6.93;;
4652;SDS011;9900;48.738;9.306;2022-11-15T04:20:13;13.43;;;7.50;;
4652;SDS011;9900;48.738;9.306;2022-11-15T04:23:01;10.83;;;7.60;;
4652;SDS011;9900;48.738;9.306;2022-11-15T04:25:49;11.83;;;7.10;;
4652;SDS011;9900;48.738;9.306;2022-11-15T04:28:19;13.20;;;7.77;;
4652;SDS011;9900;48.738;9.306;2022-11-15T04:30:47;12.67;;;7.50;;
4652;SDS011;9900;48.738;9.306;2022-11-15T04:33:17;14.03;;;7.53;;
4652;SDS011;9900;48.738;9.306;2022-11-15T04:35:46;10.30;;;6.30;;
4652;SDS011;9900;48.738;9.306;2022-11-15T04:38:35;12.50;;;6.83;;
4652;SDS011;9900;48.738;9.306;2022-11-15T04:41:04;13.80;;;7.40;;
4652;SDS011;9900;48.738;9.306;2022-11-15T04:43:33;10.77;;;6.87;;
4652;SDS011;9900;48.738;9.306;2022-11-15T04:46:02;13.53;;;7.63;;
4652;SDS011;9900;48.738;9.306;2022-11-15T04:48:32;9.60;;;7.67;;
4652;SDS011;9900;48.738;9.306;2022-11-15T04:51:00;14.90;;;7.37;;
4652;SDS011;9900;48.738;9.306;2022-11-15T04:53:29;12.20;;;7.77;;
4652;SDS011;9900;48.738;9.306;2022-11-15T04:55:58;12.03;;;6.73;;
4652;SDS011;9900;48.738;9.306;2022-11-15T04:58:27;11.20;;;7.10;;
4652;SDS011;9900;48.738;9.306;2022-11-15T05:00:55;11.53;;;7.30;;
4652;SDS011;9900;48.738;9.306;2022-11-15T05:03:24;8.17;;;6.40;;
4652;SDS011;9900;48.738;9.306;2022-11-15T05:06:12;12.00;;;7.73;;
4652;SDS011;9900;48.738;9.306;2022-11-15T05:08:40;11.83;;;6.90;;
4652;SDS011;9900;48.738;9.306;2022-11-15T05:11:09;10.13;;;6.53;;
4652;SDS011;9900;48.738;9.306;2022-11-15T05:13:37;10.60;;;6.40;;
4652;SDS011;9900;48.738;9.306;2022-11-15T05:16:06;12.30;;;7.63;;
4652;SDS011;9900;48.738;9.306;2022-11-15T05:18:35;10.60;;;7.03;;
4652;SDS011;9900;48.738;9.306;2022-11-15T05:21:04;13.13;;;7.77;;
4652;SDS011;9900;48.738;9.306;2022-11-15T05:23:34;16.63;;;8.03;;
4652;SDS011;9900;48.738;9.306;2022-11-15T05:26:03;12.33;;;7.27;;
4652;SDS011;9900;48.738;9.306;2022-11-15T05:28:36;9.23;;;6.27;;
4652;SDS011;9900;48.738;9.306;2022-11-15T05:31:06;18.00;;;7.53;;
4652;SDS011;9900;48.738;9.306;2022-11-15T05:33:35;7.80;;;6.30;;
4652;SDS011;9900;48.738;9.306;2022-11-15T05:36:07;12.33;;;7.60;;
4652;SDS011;9900;48.738;9.306;2022-11-15T05:38:41;10.63;;;6.50;;
4652;SDS011;9900;48.738;9.306;2022-11-15T05:41:10;12.23;;;7.07;;
4652;SDS011;9900;48.738;9.306;2022-11-15T05:43:40;13.30;;;7.80;;
4652;SDS011;9900;48.738;9.306;2022-11-15T05:46:09;12.80;;;7.80;;
4652;SDS011;9900;48.738;9.306;2022-11-15T05:48:38;14.47;;;6.97;;
4652;SDS011;9900;48.738;9.306;2022-11-15T05:51:08;8.43;;;6.70;;
4652;SDS011;9900;48.738;9.306;2022-11-15T05:53:37;14.83;;;7.40;;
4652;SDS011;9900;48.738;9.306;2022-11-15T05:56:08;13.60;;;7.80;;
4652;SDS011;9900;48.738;9.306;2022-11-15T05:58:37;11.40;;;7.13;;
4652;SDS011;9900;48.738;9.306;2022-11-15T06:01:06;11.90;;;6.70;;
4652;SDS011;9900;48.738;9.306;2022-11-15T06:03:34;9.90;;;6.90;;
4652;SDS011;9900;48.738;9.306;2022-11-15T06:06:03;12.70;;;6.93;;
4652;SDS011;9900;48.738;9.306;2022-11-15T06:08:32;12.30;;;7.53;;
4652;SDS011;9900;48.738;9.306;2022-11-15T06:11:04;9.70;;;6.90;;
4652;SDS011;9900;48.738;9.306;2022-11-15T06:13:35;12.23;;;7.13;;
4652;SDS011;9900;48.738;9.306;2022-11-15T06:16:04;11.63;;;6.90;;
4652;SDS011;9900;48.738;9.306;2022-11-15T06:18:33;13.60;;;7.70;;
4652;SDS011;9900;48.738;9.306;2022-11-15T06:21:02;10.53;;;7.40;;
4652;SDS011;9900;48.738;9.306;2022-11-15T06:23:31;14.90;;;7.20;;
4652;SDS011;9900;48.738;9.306;2022-11-15T06:26:01;14.02;;;8.70;;
4652;SDS011;9900;48.738;9.306;2022-11-15T06:28:31;11.00;;;8.00;;
4652;SDS011;9900;48.738;9.306;2022-11-15T06:31:06;15.80;;;8.33;;
4652;SDS011;9900;48.738;9.306;2022-11-15T06:33:38;13.40;;;7.50;;
4652;SDS011;9900;48.738;9.306;2022-11-15T06:36:08;17.40;;;7.33;;
4652;SDS011;9900;48.738;9.306;2022-11-15T06:38:44;12.70;;;7.47;;
4652;SDS011;9900;48.738;9.306;2022-11-15T06:41:13;17.23;;;7.67;;
4652;SDS011;9900;48.738;9.306;2022-11-15T06:43:42;9.90;;;6.67;;
4652;SDS011;9900;48.738;9.306;2022-11-15T06:46:12;17.97;;;7.90;;
4652;SDS011;9900;48.738;9.306;2022-11-15T06:48:40;18.67;;;8.00;;
4652;SDS011;9900;48.738;9.306;2022-11-15T06:51:09;13.87;;;7.10;;
4652;SDS011;9900;48.738;9.306;2022-11-15T06:53:38;12.50;;;6.73;;
4652;SDS011;9900;48.738;9.306;2022-11-15T06:56:06;14.13;;;7.53;;
4652;SDS011;9900;48.738;9.306;2022-11-15T06:58:36;12.60;;;7.13;;
4652;SDS011;9900;48.738;9.306;2022-11-15T07:01:05;11.97;;;7.10;;
4652;SDS011;9900;48.738;9.306;2022-11-15T07:03:38;10.30;;;6.93;;
4652;SDS011;9900;48.738;9.306;2022-11-15T07:06:08;9.30;;;6.97;;
4652;SDS011;9900;48.738;9.306;2022-11-15T07:08:37;11.73;;;7.90;;
4652;SDS011;9900;48.738;9.306;2022-11-15T07:11:06;10.83;;;6.57;;
4652;SDS011;9900;48.738;9.306;2022-11-15T07:13:36;10.60;;;6.87;;
4652;SDS011;9900;48.738;9.306;2022-11-15T07:16:05;8.50;;;6.83;;
4652;SDS011;9900;48.738;9.306;2022-11-15T07:18:37;16.37;;;7.27;;
4652;SDS011;9900;48.738;9.306;2022-11-15T07:21:08;12.30;;;7.37;;
4652;SDS011;9900;48.738;9.306;2022-11-15T07:23:38;24.67;;;7.30;;
4652;SDS011;9900;48.738;9.306;2022-11-15T07:26:07;12.27;;;7.50;;
4652;SDS011;9900;48.738;9.306;2022-11-15T07:28:36;16.33;;;7.43;;
4652;SDS011;9900;48.738;9.306;2022-11-15T07:31:05;12.13;;;6.40;;
4652;SDS011;9900;48.738;9.306;2022-11-15T07:33:34;11.90;;;6.70;;
4652;SDS011;9900;48.738;9.306;2022-11-15T07:36:05;11.60;;;6.87;;
4652;SDS011;9900;48.738;9.306;2022-11-15T07:38:35;12.63;;;7.33;;
4652;SDS011;9900;48.738;9.306;2022-11-15T07:41:09;13.37;;;6.80;;
4652;SDS011;9900;48.738;9.306;2022-11-15T07:43:38;15.87;;;7.10;;
4652;SDS011;9900;48.738;9.306;2022-11-15T07:46:07;14.00;;;7.70;;
4652;SDS011;9900;48.738;9.306;2022-11-15T07:48:38;12.43;;;7.00;;
4652;SDS011;9900;48.738;9.306;2022-11-15T07:51:12;15.37;;;7.87;;
4652;SDS011;9900;48.738;9.306;2022-11-15T07:53:41;12.27;;;8.37;;
4652;SDS011;9900;48.738;9.306;2022-11-15T07:56:10;14.50;;;6.83;;
4652;SDS011;9900;48.738;9.306;2022-11-15T07:58:40;20.93;;;7.13;;
4652;SDS011;9900;48.738;9.306;2022-11-15T08:01:09;9.63;;;6.40;;
4652;SDS011;9900;48.738;9.306;2022-11-15T08:03:40;9.60;;;6.50;;
4652;SDS011;9900;48.738;9.306;2022-11-15T08:06:08;12.30;;;6.23;;
4652;SDS011;9900;48.738;9.306;2022-11-15T08:08:37;14.13;;;6.70;;
4652;SDS011;9900;48.738;9.306;2022-11-15T08:11:06;13.60;;;7.50;;
4652;SDS011;9900;48.738;9.306;2022-11-15T08:13:34;9.60;;;5.40;;
4652;SDS011;9900;48.738;9.306;2022-11-15T08:16:04;13.40;;;6.70;;
4652;SDS011;9900;48.738;9.306;2022-11-15T08:18:34;15.83;;;6.50;;
4652;SDS011;9900;48.738;9.306;2022-11-15T08:21:04;8.77;;;6.00;;
4652;SDS011;9900;48.738;9.306;2022-11-15T08:23:33;7.87;;;5.53;;
4652;SDS011;9900;48.738;9.306;2022-11-15T08:26:02;8.70;;;6.27;;
4652;SDS011;9900;48.738;9.306;2022-11-15T08:28:31;12.60;;;6.30;;
4652;SDS011;9900;48.738;9.306;2022-11-15T08:31:00;12.03;;;6.70;;
4652;SDS011;9900;48.738;9.306;2022-11-15T08:33:29;9.97;;;5.70;;
4652;SDS011;9900;48.738;9.306;2022-11-15T08:35:59;13.40;;;5.97;;
4652;SDS011;9900;48.738;9.306;2022-11-15T08:38:30;10.23;;;6.73;;
4652;SDS011;9900;48.738;9.306;2022-11-15T08:41:00;10.20;;;6.77;;
4652;SDS011;9900;48.738;9.306;2022-11-15T08:43:30;14.80;;;6.97;;
4652;SDS011;9900;48.738;9.306;2022-11-15T08:45:59;13.33;;;6.70;;
4652;SDS011;9900;48.738;9.306;2022-11-15T08:48:27;8.97;;;6.27;;
4652;SDS011;9900;48.738;9.306;2022-11-15T08:50:57;10.70;;;7.23;;
4652;SDS011;9900;48.738;9.306;2022-11-15T08:53:26;10.33;;;6.37;;
4652;SDS011;9900;48.738;9.306;2022-11-15T08:55:56;14.90;;;7.10;;
4652;SDS011;9900;48.738;9.306;2022-11-15T08:58:25;11.90;;;6.50;;
4652;SDS011;9900;48.738;9.306;2022-11-15T09:00:54;24.63;;;7.43;;
4652;SDS011;9900;48.738;9.306;2022-11-15T09:03:23;12.20;;;7.33;;
4652;SDS011;9900;48.738;9.306;2022-11-15T09:05:54;10.80;;;6.37;;
4652;SDS011;9900;48.738;9.306;2022-11-15T09:08:23;10.83;;;6.87;;
4652;SDS011;9900;48.738;9.306;2022-11-15T09:11:13;18.43;;;7.23;;
4652;SDS011;9900;48.738;9.306;2022-11-15T09:13:43;11.50;;;7.00;;
4652;SDS011;9900;48.738;9.306;2022-11-15T09:16:12;12.53;;;6.73;;
4652;SDS011;9900;48.738;9.306;2022-11-15T09:18:42;8.13;;;5.93;;
4652;SDS011;9900;48.738;9.306;2022-11-15T09:21:11;10.67;;;6.30;;
4652;SDS011;9900;48.738;9.306;2022-11-15T09:23:40;10.90;;;6.97;;
4652;SDS011;9900;48.738;9.306;2022-11-15T09:26:08;12.40;;;6.40;;
4652;SDS011;9900;48.738;9.306;2022-11-15T09:28:38;10.90;;;6.83;;
4652;SDS011;9900;48.738;9.306;2022-11-15T09:31:09;12.30;;;6.67;;
4652;SDS011;9900;48.738;9.306;2022-11-15T09:33:38;18.17;;;6.43;;
4652;SDS011;9900;48.738;9.306;2022-11-15T09:36:07;19.20;;;6.43;;
4652;SDS011;9900;48.738;9.306;2022-11-15T09:38:36;9.63;;;6.33;;
4652;SDS011;9900;48.738;9.306;2022-11-15T09:41:24;8.80;;;5.73;;
4652;SDS011;9900;48.738;9.306;2022-11-15T09:44:02;8.63;;;6.67;;
4652;SDS011;9900;48.738;9.306;2022-11-15T09:46:42;8.90;;;7.00;;
4652;SDS011;9900;48.738;9.306;2022-11-15T09:49:14;19.83;;;6.97;;
4652;SDS011;9900;48.738;9.306;2022-11-15T09:51:44;8.40;;;6.90;;
4652;SDS011;9900;48.738;9.306;2022-11-15T09:54:21;10.43;;;6.77;;
4652;SDS011;9900;48.738;9.306;2022-11-15T09:57:15;11.60;;;7.13;;
4652;SDS011;9900;48.738;9.306;2022-11-15T10:00:02;12.80;;;6.67;;
4652;SDS011;9900;48.738;9.306;2022-11-15T10:02:59;13.57;;;7.13;;
4652;SDS011;9900;48.738;9.306;2022-11-15T10:05:37;9.80;;;5.90;;
4652;SDS011;9900;48.738;9.306;2022-11-15T10:08:10;17.40;;;6.73;;
4652;SDS011;9900;48.738;9.306;2022-11-15T10:10:48;13.80;;;7.00;;
4652;SDS011;9900;48.738;9.306;2022-11-15T10:13:40;11.10;;;6.27;;
4652;SDS011;9900;48.738;9.306;2022-11-15T10:19:17;11.63;;;7.10;;
4652;SDS011;9900;48.738;9.306;2022-11-15T10:21:54;9.07;;;5.97;;
4652;SDS011;9900;48.738;9.306;2022-11-15T10:24:28;12.10;;;6.50;;
4652;SDS011;9900;48.738;9.306;2022-11-15T10:27:00;16.80;;;6.37;;
4652;SDS011;9900;48.738;9.306;2022-11-15T10:29:29;11.50;;;6.20;;
4652;SDS011;9900;48.738;9.306;2022-11-15T10:31:58;10.00;;;6.03;;
4652;SDS011;9900;48.738;9.306;2022-11-15T10:34:28;10.23;;;6.43;;
4652;SDS011;9900;48.738;9.306;2022-11-15T10:36:57;9.00;;;5.57;;
4652;SDS011;9900;48.738;9.306;2022-11-15T10:39:27;10.00;;;6.37;;
4652;SDS011;9900;48.738;9.306;2022-11-15T10:41:56;10.73;;;5.77;;
4652;SDS011;9900;48.738;9.306;2022-11-15T10:44:26;10.57;;;5.87;;
4652;SDS011;9900;48.738;9.306;2022-11-15T10:47:06;13.47;;;5.63;;
4652;SDS011;9900;48.738;9.306;2022-11-15T10:49:55;8.60;;;5.13;;
4652;SDS011;9900;48.738;9.306;2022-11-15T10:52:28;7.97;;;5.30;;
4652;SDS011;9900;48.738;9.306;2022-11-15T10:54:59;7.50;;;5.00;;
4652;SDS011;9900;48.738;9.306;2022-11-15T10:57:32;8.30;;;5.57;;
4652;SDS011;9900;48.738;9.306;2022-11-15T11:00:03;10.70;;;5.67;;
4652;SDS011;9900;48.738;9.306;2022-11-15T11:02:34;10.43;;;5.60;;
4652;SDS011;9900;48.738;9.306;2022-11-15T11:05:06;9.80;;;5.00;;
4652;SDS011;9900;48.738;9.306;2022-11-15T11:08:21;11.33;;;5.77;;
4652;SDS011;9900;48.738;9.306;2022-11-15T11:10:52;9.00;;;4.73;;
4652;SDS011;9900;48.738;9.306;2022-11-15T11:13:29;8.53;;;5.47;;
4652;SDS011;9900;48.738;9.306;2022-11-15T11:16:11;7.30;;;5.07;;
4652;SDS011;9900;48.738;9.306;2022-11-15T11:18:49;6.10;;;4.90;;
4652;SDS011;9900;48.738;9.306;2022-11-15T11:21:25;9.30;;;4.93;;
4652;SDS011;9900;48.738;9.306;2022-11-15T11:24:05;10.03;;;6.20;;
4652;SDS011;9900;48.738;9.306;2022-11-15T11:26:41;9.80;;;5.90;;
4652;SDS011;9900;48.738;9.306;2022-11-15T11:29:15;8.60;;;5.50;;
4652;SDS011;9900;48.738;9.306;2022-11-15T11:31:53;9.80;;;5.57;;
4652;SDS011;9900;48.738;9.306;2022-11-15T11:34:30;9.80;;;5.70;;
4652;SDS011;9900;48.738;9.306;2022-11-15T11:37:11;7.90;;;5.80;;
4652;SDS011;9900;48.738;9.306;2022-11-15T11:39:44;10.20;;;5.50;;
4652;SDS011;9900;48.738;9.306;2022-11-15T11:42:24;9.93;;;5.70;;
4652;SDS011;9900;48.738;9.306;2022-11-15T11:44:57;8.27;;;5.97;;
4652;SDS011;9900;48.738;9.306;2022-11-15T11:47:32;8.73;;;5.23;;
4652;SDS011;9900;48.738;9.306;2022-11-15T11:50:10;8.63;;;5.80;;
4652;SDS011;9900;48.738;9.306;2022-11-15T11:52:42;11.67;;;6.53;;
4652;SDS011;9900;48.738;9.306;2022-11-15T11:55:14;11.07;;;5.90;;
4652;SDS011;9900;48.738;9.306;2022-11-15T11:57:45;11.60;;;5.87;;
4652;SDS011;9900;48.738;9.306;2022-11-15T12:00:18;7.27;;;5.33;;
4652;SDS011;9900;48.738;9.306;2022-11-15T12:02:49;9.23;;;5.63;;
4652;SDS011;9900;48.738;9.306;2022-11-15T12:05:35;12.17;;;5.93;;
4652;SDS011;9900;48.738;9.306;2022-11-15T12:08:17;9.77;;;5.53;;
4652;SDS011;9900;48.738;9.306;2022-11-15T12:10:53;9.10;;;5.90;;
4652;SDS011;9900;48.738;9.306;2022-11-15T12:13:26;9.20;;;5.53;;
4652;SDS011;9900;48.738;9.306;2022-11-15T12:15:57;10.00;;;5.40;;
4652;SDS011;9900;48.738;9.306;2022-11-15T12:18:35;20.70;;;6.40;;
4652;SDS011;9900;48.738;9.306;2022-11-15T12:21:04;12.47;;;6.27;;
4652;SDS011;9900;48.738;9.306;2022-11-15T12:23:39;12.90;;;5.87;;
4652;SDS011;9900;48.738;9.306;2022-11-15T12:26:11;10.47;;;6.87;;
4652;SDS011;9900;48.738;9.306;2022-11-15T12:28:45;10.47;;;5.70;;
4652;SDS011;9900;48.738;9.306;2022-11-15T12:31:35;7.40;;;5.20;;
4652;SDS011;9900;48.738;9.306;2022-11-15T12:34:13;5.47;;;4.40;;
4652;SDS011;9900;48.738;9.306;2022-11-15T12:36:44;8.10;;;4.50;;
4652;SDS011;9900;48.738;9.306;2022-11-15T12:39:15;8.03;;;5.50;;
4652;SDS011;9900;48.738;9.306;2022-11-15T12:42:23;6.10;;;4.90;;
4652;SDS011;9900;48.738;9.306;2022-11-15T12:44:57;8.57;;;4.73;;
4652;SDS011;9900;48.738;9.306;2022-11-15T12:47:27;10.87;;;5.30;;
4652;SDS011;9900;48.738;9.306;2022-11-15T12:49:55;11.40;;;5.30;;
4652;SDS011;9900;48.738;9.306;2022-11-15T12:52:24;9.00;;;5.33;;
4652;SDS011;9900;48.738;9.306;2022-11-15T12:54:58;7.57;;;5.13;;
4652;SDS011;9900;48.738;9.306;2022-11-15T12:57:33;8.57;;;4.90;;
4652;SDS011;9900;48.738;9.306;2022-11-15T13:03:22;10.97;;;6.40;;
4652;SDS011;9900;48.738;9.306;2022-11-15T13:05:59;12.37;;;6.97;;
4652;SDS011;9900;48.738;9.306;2022-11-15T13:08:43;11.77;;;5.80;;
4652;SDS011;9900;48.738;9.306;2022-11-15T13:14:38;9.10;;;6.40;;
4652;SDS011;9900;48.738;9.306;2022-11-15T13:20:19;11.60;;;6.30;;
4652;SDS011;9900;48.738;9.306;2022-11-15T13:22:50;12.30;;;6.20;;
4652;SDS011;9900;48.738;9.306;2022-11-15T13:25:21;9.73;;;5.87;;
4652;SDS011;9900;48.738;9.306;2022-11-15T13:27:57;11.80;;;5.43;;
4652;SDS011;9900;48.738;9.306;2022-11-15T13:30:33;16.63;;;4.83;;
4652;SDS011;9900;48.738;9.306;2022-11-15T13:33:06;11.40;;;6.13;;
4652;SDS011;9900;48.738;9.306;2022-11-15T13:35:38;10.70;;;5.03;;
4652;SDS011;9900;48.738;9.306;2022-11-15T13:38:11;9.73;;;5.23;;
4652;SDS011;9900;48.738;9.306;2022-11-15T13:40:46;8.90;;;5.20;;
4652;SDS011;9900;48.738;9.306;2022-11-15T13:43:28;8.60;;;4.47;;
4652;SDS011;9900;48.738;9.306;2022-11-15T13:46:06;10.47;;;5.40;;
4652;SDS011;9900;48.738;9.306;2022-11-15T13:48:39;14.13;;;5.47;;
4652;SDS011;9900;48.738;9.306;2022-11-15T13:51:10;11.80;;;5.20;;
4652;SDS011;9900;48.738;9.306;2022-11-15T13:53:46;10.73;;;5.13;;
4652;SDS011;9900;48.738;9.306;2022-11-15T13:56:17;7.20;;;4.37;;
4652;SDS011;9900;48.738;9.306;2022-11-15T13:58:48;14.73;;;5.13;;
4652;SDS011;9900;48.738;9.306;2022-11-15T14:01:17;6.40;;;3.97;;
4652;SDS011;9900;48.738;9.306;2022-11-15T14:03:50;6.73;;;4.57;;
4652;SDS011;9900;48.738;9.306;2022-11-15T14:06:22;10.70;;;4.93;;
4652;SDS011;9900;48.738;9.306;2022-11-15T14:08:59;12.03;;;6.13;;
4652;SDS011;9900;48.738;9.306;2022-11-15T14:11:52;7.17;;;4.60;;
4652;SDS011;9900;48.738;9.306;2022-11-15T14:14:23;8.93;;;4.80;;
4652;SDS011;9900;48.738;9.306;2022-11-15T14:16:53;10.03;;;4.97;;
4652;SDS011;9900;48.738;9.306;2022-11-15T14:19:36;6.60;;;4.10;;
4652;SDS011;9900;48.738;9.306;2022-11-15T14:22:13;8.80;;;4.80;;
4652;SDS011;9900;48.738;9.306;2022-11-15T14:24:44;15.17;;;5.40;;
4652;SDS011;9900;48.738;9.306;2022-11-15T14:27:24;6.60;;;4.80;;
4652;SDS011;9900;48.738;9.306;2022-11-15T14:29:55;6.83;;;5.10;;
4652;SDS011;9900;48.738;9.306;2022-11-15T14:32:24;15.23;;;4.90;;
4652;SDS011;9900;48.738;9.306;2022-11-15T14:34:55;9.87;;;4.73;;
4652;SDS011;9900;48.738;9.306;2022-11-15T14:37:25;7.67;;;5.13;;
4652;SDS011;9900;48.738;9.306;2022-11-15T14:39:55;6.93;;;4.63;;
4652;SDS011;9900;48.738;9.306;2022-11-15T14:42:24;6.90;;;5.67;;
4652;SDS011;9900;48.738;9.306;2022-11-15T14:44:54;12.03;;;5.00;;
4652;SDS011;9900;48.738;9.306;2022-11-15T14:47:23;6.60;;;5.10;;
4652;SDS011;9900;48.738;9.306;2022-11-15T14:49:52;10.60;;;5.40;;
4652;SDS011;9900;48.738;9.306;2022-11-15T14:52:23;8.30;;;5.37;;
4652;SDS011;9900;48.738;9.306;2022-11-15T14:54:59;13.13;;;5.77;;
4652;SDS011;9900;48.738;9.306;2022-11-15T14:57:28;6.50;;;4.90;;
4652;SDS011;9900;48.738;9.306;2022-11-15T14:59:59;12.50;;;6.17;;
4652;SDS011;9900;48.738;9.306;2022-11-15T15:02:27;16.67;;;6.27;;
4652;SDS011;9900;48.738;9.306;2022-11-15T15:04:56;6.23;;;5.27;;
4652;SDS011;9900;48.738;9.306;2022-11-15T15:07:28;9.60;;;5.63;;
4652;SDS011;9900;48.738;9.306;2022-11-15T15:09:57;9.90;;;5.50;;
4652;SDS011;9900;48.738;9.306;2022-11-15T15:12:45;13.50;;;6.93;;
4652;SDS011;9900;48.738;9.306;2022-11-15T15:15:16;12.93;;;8.27;;
4652;SDS011;9900;48.738;9.306;2022-11-15T15:17:46;11.90;;;6.57;;
4652;SDS011;9900;48.738;9.306;2022-11-15T15:20:15;15.00;;;7.80;;
4652;SDS011;9900;48.738;9.306;2022-11-15T15:22:44;13.70;;;7.63;;
4652;SDS011;9900;48.738;9.306;2022-11-15T15:25:23;9.97;;;7.47;;
4652;SDS011;9900;48.738;9.306;2022-11-15T15:27:54;12.17;;;7.20;;
4652;SDS011;9900;48.738;9.306;2022-11-15T15:30:25;9.30;;;7.13;;
4652;SDS011;9900;48.738;9.306;2022-11-15T15:32:54;21.90;;;7.20;;
4652;SDS011;9900;48.738;9.306;2022-11-15T15:35:23;12.97;;;7.97;;
4652;SDS011;9900;48.738;9.306;2022-11-15T15:37:57;11.07;;;7.97;;
4652;SDS011;9900;48.738;9.306;2022-11-15T15:40:27;13.40;;;7.83;;
4652;SDS011;9900;48.738;9.306;2022-11-15T15:42:56;13.70;;;7.50;;
4652;SDS011;9900;48.738;9.306;2022-11-15T15:45:27;10.80;;;7.50;;
4652;SDS011;9900;48.738;9.306;2022-11-15T15:47:56;13.40;;;7.60;;
4652;SDS011;9900;48.738;9.306;2022-11-15T15:50:26;11.67;;;7.70;;
4652;SDS011;9900;48.738;9.306;2022-11-15T15:52:56;17.50;;;8.03;;
4652;SDS011;9900;48.738;9.306;2022-11-15T15:55:25;11.60;;;7.23;;